Time;durP1;ratioP1;P1;durP2;ratioP2;P2;SDS_P1;SDS_P2;PMS_P1;PMS_P2;Temp;Humidity;BMP_temperature;BMP_pressure;BME280_temperature;BME280_humidity;BME280_pressure;Samples;Min_cycle;Max_cycle;Signal;HPM_P1;HPM_P2
2021/12/26 00:01:03;;;;;;;7.53;4.07;;;-0.50;68.20;;;;;;5054076;28;20036;-79
2021/12/26 00:03:30;;;;;;;6.22;3.47;;;-0.50;68.30;;;;;;5040337;28;20033;-78
2021/12/26 00:06:00;;;;;;;6.35;3.53;;;-0.50;68.20;;;;;;5033103;28;20434;-80
2021/12/26 00:08:26;;;;;;;8.02;3.42;;;-0.50;68.90;;;;;;5033836;28;20038;-75
2021/12/26 00:10:52;;;;;;;5.38;3.40;;;-0.60;68.30;;;;;;5032559;28;20041;-79
2021/12/26 00:13:20;;;;;;;5.88;4.38;;;-0.50;68.40;;;;;;5032228;28;20061;-78
2021/12/26 00:15:46;;;;;;;5.45;3.50;;;-0.60;68.40;;;;;;5032326;28;20026;-77
2021/12/26 00:18:12;;;;;;;5.85;3.28;;;-0.60;68.40;;;;;;5033477;28;20101;-80
2021/12/26 00:20:39;;;;;;;6.95;3.20;;;-0.60;68.50;;;;;;5033843;28;20112;-79
2021/12/26 00:23:06;;;;;;;6.57;3.45;;;-0.60;68.50;;;;;;5032897;28;20044;-81
2021/12/26 00:25:32;;;;;;;6.45;3.58;;;-0.60;68.60;;;;;;5034111;28;20052;-80
2021/12/26 00:27:59;;;;;;;5.32;3.30;;;-0.70;68.50;;;;;;5033143;28;20037;-78
2021/12/26 00:30:25;;;;;;;8.32;3.70;;;-0.60;68.50;;;;;;5034062;28;20456;-79
2021/12/26 00:32:51;;;;;;;6.28;3.50;;;-0.70;68.40;;;;;;5032813;28;20041;-78
2021/12/26 00:35:19;;;;;;;6.60;3.67;;;-0.70;68.50;;;;;;5033731;28;20026;-76
2021/12/26 00:37:45;;;;;;;6.72;3.83;;;-0.70;68.60;;;;;;5031542;28;20083;-77
2021/12/26 00:40:13;;;;;;;7.90;3.55;;;-0.60;68.60;;;;;;5032238;28;20029;-77
2021/12/26 00:42:40;;;;;;;7.05;3.53;;;-0.70;68.50;;;;;;5033587;28;20083;-79
2021/12/26 00:45:07;;;;;;;8.25;4.45;;;-0.70;68.60;;;;;;5040417;28;20040;-79
2021/12/26 00:47:33;;;;;;;9.65;4.20;;;-0.60;68.70;;;;;;5052230;28;20032;-79
2021/12/26 00:50:01;;;;;;;8.70;4.72;;;-0.70;68.80;;;;;;5052614;28;20395;-78
2021/12/26 00:52:27;;;;;;;7.57;4.05;;;-0.60;68.90;;;;;;5053687;28;20031;-75
2021/12/26 00:54:53;;;;;;;7.43;4.60;;;-0.60;68.90;;;;;;5052089;28;20033;-79
2021/12/26 00:57:19;;;;;;;10.63;4.40;;;-0.50;69.50;;;;;;5053773;28;20468;-79
2021/12/26 00:59:45;;;;;;;8.55;4.68;;;-0.50;68.80;;;;;;5049877;28;20029;-77
2021/12/26 01:02:11;;;;;;;8.20;4.95;;;-0.50;68.80;;;;;;5032167;28;20025;-76
2021/12/26 01:04:39;;;;;;;10.05;4.80;;;-0.60;68.80;;;;;;5034095;28;20032;-79
2021/12/26 01:07:11;;;;;;;7.05;4.30;;;-0.60;68.90;;;;;;5033211;28;20063;-76
2021/12/26 01:09:37;;;;;;;9.30;4.90;;;-0.60;69.10;;;;;;5033563;28;20029;-79
2021/12/26 01:12:11;;;;;;;8.98;5.03;;;-0.60;69.10;;;;;;5033404;28;20570;-77
2021/12/26 01:14:45;;;;;;;11.55;4.72;;;-0.60;69.10;;;;;;5029239;28;20076;-79
2021/12/26 01:17:15;;;;;;;9.02;5.07;;;-0.60;69.20;;;;;;5033253;28;20079;-76
2021/12/26 01:19:45;;;;;;;14.13;5.20;;;-0.60;69.20;;;;;;5049203;28;20471;-79
2021/12/26 01:22:12;;;;;;;9.75;4.95;;;-0.70;69.20;;;;;;5033626;28;20048;-79
2021/12/26 01:24:38;;;;;;;10.10;5.28;;;-0.70;69.20;;;;;;5032068;28;20034;-79
2021/12/26 01:27:04;;;;;;;13.35;4.53;;;-0.70;69.20;;;;;;5032560;28;20029;-79
2021/12/26 01:29:30;;;;;;;9.95;5.05;;;-0.70;69.20;;;;;;5031244;28;20391;-79
2021/12/26 01:31:56;;;;;;;10.80;4.60;;;-0.70;69.10;;;;;;5031584;28;20502;-79
2021/12/26 01:34:21;;;;;;;9.10;5.28;;;-0.70;69.10;;;;;;5033257;28;20053;-79
2021/12/26 01:36:48;;;;;;;9.55;5.22;;;-0.80;69.80;;;;;;5033253;28;20025;-78
2021/12/26 01:39:14;;;;;;;7.55;4.13;;;-0.80;69.30;;;;;;5033306;28;20033;-78
2021/12/26 01:41:42;;;;;;;8.55;4.53;;;-0.90;69.30;;;;;;5032983;28;20468;-76
2021/12/26 01:44:11;;;;;;;8.88;4.85;;;-0.80;69.60;;;;;;5031726;28;20053;-76
2021/12/26 01:46:37;;;;;;;7.95;4.22;;;-0.80;69.60;;;;;;5031982;28;20526;-77
2021/12/26 01:49:07;;;;;;;12.68;9.52;;;-0.80;69.40;;;;;;5033896;28;20057;-81
2021/12/26 01:51:33;;;;;;;5.90;4.32;;;-0.70;69.30;;;;;;5033647;28;20026;-76
2021/12/26 01:54:04;;;;;;;7.97;4.30;;;-0.70;69.00;;;;;;5037007;28;20040;-78
2021/12/26 01:56:30;;;;;;;9.15;4.63;;;-0.70;69.40;;;;;;5049655;28;20024;-75
2021/12/26 01:58:57;;;;;;;9.05;5.05;;;-0.80;69.30;;;;;;5057200;28;20032;-76
2021/12/26 02:01:23;;;;;;;9.50;4.20;;;-0.80;69.40;;;;;;5055441;28;20043;-75
2021/12/26 02:03:49;;;;;;;10.55;4.43;;;-0.80;69.50;;;;;;5056426;28;20036;-76
2021/12/26 02:06:15;;;;;;;10.30;5.03;;;-0.70;69.60;;;;;;5055652;28;20538;-80
2021/12/26 02:08:41;;;;;;;9.63;4.03;;;-0.70;69.50;;;;;;5055538;28;20025;-80
2021/12/26 02:11:07;;;;;;;8.65;3.72;;;-0.80;69.50;;;;;;5046869;28;20372;-75
2021/12/26 02:13:33;;;;;;;10.63;4.82;;;-0.70;69.70;;;;;;5036745;28;20080;-79
2021/12/26 02:15:59;;;;;;;11.73;5.47;;;-0.70;69.80;;;;;;5036958;28;20033;-79
2021/12/26 02:18:25;;;;;;;13.88;7.10;;;-0.70;69.90;;;;;;5035229;28;20468;-80
2021/12/26 02:21:23;;;;;;;18.70;7.43;;;-0.80;69.90;;;;;;5035239;28;20022;-80
2021/12/26 02:24:01;;;;;;;25.35;9.43;;;-0.70;70.10;;;;;;5038490;28;20442;-75
2021/12/26 02:29:11;;;;;;;18.98;8.07;;;-0.70;69.70;;;;;;5056619;28;20434;-81
2021/12/26 02:31:37;;;;;;;13.27;6.00;;;-0.70;69.90;;;;;;5055976;28;20033;-78
2021/12/26 02:34:03;;;;;;;11.80;5.68;;;-0.70;70.00;;;;;;5056358;28;20087;-77
2021/12/26 02:36:30;;;;;;;13.43;4.63;;;-0.80;70.00;;;;;;5056299;28;20039;-82
2021/12/26 02:38:56;;;;;;;9.27;4.90;;;-0.80;70.20;;;;;;5056158;28;20535;-80
2021/12/26 02:41:22;;;;;;;6.03;4.30;;;-0.90;70.30;;;;;;5056719;28;20037;-80
2021/12/26 02:43:47;;;;;;;11.90;4.47;;;-0.90;70.30;;;;;;5054774;28;20070;-76
2021/12/26 02:46:13;;;;;;;11.88;4.07;;;-0.90;70.30;;;;;;5054824;28;20029;-79
2021/12/26 02:48:39;;;;;;;10.50;4.05;;;-0.90;70.40;;;;;;5055652;28;20478;-75
2021/12/26 02:51:06;;;;;;;8.85;4.03;;;-1.00;70.40;;;;;;5055684;28;20025;-80
2021/12/26 02:53:32;;;;;;;8.55;4.03;;;-1.00;70.40;;;;;;5053275;28;20124;-79
2021/12/26 02:55:59;;;;;;;9.10;6.50;;;-1.10;70.40;;;;;;5035897;28;20035;-79
2021/12/26 02:58:26;;;;;;;8.45;3.58;;;-1.10;70.40;;;;;;5035936;28;20030;-77
2021/12/26 03:01:12;;;;;;;7.97;3.83;;;-1.10;70.20;;;;;;5035667;28;20033;-78
2021/12/26 03:03:38;;;;;;;7.13;3.13;;;-1.20;70.30;;;;;;5033991;28;20037;-79
2021/12/26 03:06:14;;;;;;;6.03;3.63;;;-1.20;70.30;;;;;;5044165;28;20048;-77
2021/12/26 03:08:40;;;;;;;;;;;-1.30;70.30;;;;;;5056326;28;20453;-79
2021/12/26 03:11:07;;;;;;;7.72;4.00;;;-1.30;70.50;;;;;;5054174;28;19947;-76
2021/12/26 03:13:32;;;;;;;5.05;2.97;;;-1.30;70.60;;;;;;5053857;28;20076;-79
2021/12/26 03:15:58;;;;;;;7.03;3.88;;;-1.30;70.60;;;;;;5055388;28;20079;-80
2021/12/26 03:18:24;;;;;;;7.07;3.45;;;-1.30;70.60;;;;;;5039441;28;20053;-78
2021/12/26 03:20:52;;;;;;;10.90;4.32;;;-1.30;70.70;;;;;;5035432;28;20022;-79
2021/12/26 03:23:21;;;;;;;8.52;4.05;;;-1.30;70.70;;;;;;5035448;28;20036;-78
2021/12/26 03:25:48;;;;;;;10.40;4.60;;;-1.30;70.70;;;;;;5034142;28;20475;-80
2021/12/26 03:28:14;;;;;;;7.95;3.63;;;-1.30;70.70;;;;;;5035052;28;20026;-79
2021/12/26 03:30:40;;;;;;;7.90;3.92;;;-1.40;70.80;;;;;;5034115;28;20384;-81
2021/12/26 03:33:09;;;;;;;6.68;3.58;;;-1.40;70.90;;;;;;5035563;28;20112;-72
2021/12/26 03:35:35;;;;;;;6.47;3.50;;;-1.40;71.10;;;;;;5034721;28;20025;-76
2021/12/26 03:38:04;;;;;;;6.68;3.20;;;-1.40;71.20;;;;;;5035159;28;20034;-79
2021/12/26 03:40:30;;;;;;;5.43;3.53;;;-1.40;71.30;;;;;;5047002;28;20025;-79
2021/12/26 03:42:56;;;;;;;6.47;3.90;;;-1.40;71.30;;;;;;5053612;28;20029;-78
2021/12/26 03:45:22;;;;;;;8.32;4.03;;;-1.40;71.30;;;;;;5053705;28;20029;-79
2021/12/26 03:47:50;;;;;;;6.65;3.15;;;-1.40;71.20;;;;;;5052960;28;20594;-78
2021/12/26 03:50:19;;;;;;;8.02;3.72;;;-1.40;71.20;;;;;;5052863;28;20029;-79
2021/12/26 03:52:46;;;;;;;7.00;3.55;;;-1.40;71.90;;;;;;5052766;28;20127;-77
2021/12/26 03:55:12;;;;;;;6.57;3.53;;;-1.40;71.20;;;;;;5049260;28;20029;-77
2021/12/26 03:57:37;;;;;;;10.02;4.07;;;-1.50;71.20;;;;;;5035159;28;20045;-78
2021/12/26 04:00:07;;;;;;;3.95;3.20;;;-1.50;71.30;;;;;;5034698;28;20052;-77
2021/12/26 04:02:33;;;;;;;6.70;4.00;;;-1.60;71.30;;;;;;5033166;28;20036;-77
2021/12/26 04:04:59;;;;;;;9.82;5.25;;;-1.60;71.40;;;;;;5034589;28;20029;-78
2021/12/26 04:07:24;;;;;;;8.43;3.90;;;-1.60;71.40;;;;;;5033374;28;20026;-75
2021/12/26 04:09:50;;;;;;;6.03;3.55;;;-1.60;71.40;;;;;;5033276;28;20556;-73
2021/12/26 04:12:16;;;;;;;7.30;4.22;;;-1.60;71.50;;;;;;5034499;28;20538;-76
2021/12/26 04:14:41;;;;;;;6.63;3.95;;;-1.70;71.60;;;;;;5034388;28;20037;-76
2021/12/26 04:17:07;;;;;;;12.80;5.05;;;-1.70;71.70;;;;;;5033859;28;20065;-76
2021/12/26 04:19:33;;;;;;;10.80;4.63;;;-1.70;71.70;;;;;;5034241;28;20029;-77
2021/12/26 04:21:59;;;;;;;11.02;5.07;;;-1.70;71.70;;;;;;5033000;28;20129;-74
2021/12/26 04:24:24;;;;;;;10.13;4.63;;;-1.70;71.80;;;;;;5033059;28;20475;-76
2021/12/26 04:26:50;;;;;;;8.65;4.60;;;-1.80;71.70;;;;;;5034330;28;20025;-76
2021/12/26 04:29:16;;;;;;;10.15;4.47;;;-1.80;71.80;;;;;;5037438;28;20468;-75
2021/12/26 04:31:41;;;;;;;8.60;4.03;;;-1.90;71.70;;;;;;5032948;28;20037;-76
2021/12/26 04:34:07;;;;;;;10.15;4.45;;;-1.90;71.70;;;;;;5034028;28;20116;-69
2021/12/26 04:36:33;;;;;;;11.55;4.70;;;-2.00;71.80;;;;;;5033833;28;20030;-69
2021/12/26 04:38:59;;;;;;;7.57;4.82;;;-2.00;71.90;;;;;;5032138;28;20040;-70
2021/12/26 04:41:25;;;;;;;9.32;5.45;;;-2.00;71.90;;;;;;5033490;28;20026;-71
2021/12/26 04:43:50;;;;;;;15.63;7.25;;;-2.10;71.80;;;;;;5038088;28;20037;-69
2021/12/26 04:46:16;;;;;;;15.98;7.07;;;-2.10;71.90;;;;;;5053850;28;20029;-69
2021/12/26 04:48:44;;;;;;;15.20;6.82;;;-2.10;71.80;;;;;;5052552;28;20091;-71
2021/12/26 04:51:12;;;;;;;10.02;6.10;;;-2.10;71.80;;;;;;5052191;28;20029;-69
2021/12/26 04:53:39;;;;;;;11.57;6.07;;;-2.10;71.70;;;;;;5051666;28;20379;-70
2021/12/26 04:56:06;;;;;;;12.32;5.65;;;-2.20;71.70;;;;;;5053193;28;20033;-70
2021/12/26 04:58:32;;;;;;;10.18;5.70;;;-2.20;71.80;;;;;;5052157;28;20028;-70
2021/12/26 05:00:58;;;;;;;21.10;7.50;;;-2.20;71.70;;;;;;5052122;28;20378;-70
2021/12/26 05:03:24;;;;;;;15.13;8.10;;;-2.30;71.70;;;;;;5051942;28;20033;-75
2021/12/26 05:05:50;;;;;;;19.67;8.48;;;-2.30;71.70;;;;;;5051385;28;20051;-82
2021/12/26 05:08:16;;;;;;;16.17;8.60;;;-2.40;71.80;;;;;;5052094;28;20029;-82
2021/12/26 05:10:42;;;;;;;16.63;6.93;;;-2.40;71.70;;;;;;5053848;28;20032;-71
2021/12/26 05:13:09;;;;;;;19.48;7.78;;;-2.50;71.90;;;;;;5053026;28;20052;-71
2021/12/26 05:15:35;;;;;;;23.02;8.30;;;-2.50;72.00;;;;;;5053577;28;20066;-70
2021/12/26 05:18:02;;;;;;;22.00;9.75;;;-2.50;72.00;;;;;;5053161;28;20021;-70
2021/12/26 05:20:28;;;;;;;18.95;8.30;;;-2.60;72.00;;;;;;5051536;28;20033;-69
2021/12/26 05:22:55;;;;;;;19.73;10.27;;;-2.70;72.10;;;;;;5035934;28;20043;-71
2021/12/26 05:25:23;;;;;;;18.77;8.32;;;-2.90;72.10;;;;;;5033310;28;20037;-71
2021/12/26 05:27:51;;;;;;;20.55;11.15;;;-2.90;72.50;;;;;;5037947;28;20029;-70
2021/12/26 05:30:20;;;;;;;21.15;10.45;;;-3.00;72.70;;;;;;5039701;28;20029;-69
2021/12/26 05:32:47;;;;;;;15.70;9.73;;;-3.00;72.80;;;;;;5039734;28;20108;-71
2021/12/26 05:35:15;;;;;;;23.55;10.60;;;-3.00;72.90;;;;;;5039743;28;20109;-70
2021/12/26 05:37:41;;;;;;;18.25;6.65;;;-3.10;72.90;;;;;;5039728;28;20026;-69
2021/12/26 05:40:08;;;;;;;20.92;8.23;;;-3.10;73.00;;;;;;5039742;28;20479;-70
2021/12/26 05:42:35;;;;;;;15.98;7.53;;;-3.00;73.10;;;;;;5040026;28;20498;-69
2021/12/26 05:45:00;;;;;;;14.35;6.32;;;-3.00;73.10;;;;;;5039733;28;20041;-69
2021/12/26 05:47:27;;;;;;;16.20;6.88;;;-3.10;72.90;;;;;;5039569;28;20029;-70
2021/12/26 05:49:53;;;;;;;21.52;7.82;;;-3.10;72.90;;;;;;5038287;28;20079;-71
2021/12/26 05:52:19;;;;;;;15.10;7.57;;;-3.20;73.00;;;;;;5040017;28;20030;-70
2021/12/26 05:54:46;;;;;;;16.80;7.70;;;-3.20;73.30;;;;;;5038532;28;20025;-69
2021/12/26 05:57:12;;;;;;;19.83;8.45;;;-3.20;73.60;;;;;;5038826;28;20098;-70
2021/12/26 05:59:38;;;;;;;18.42;7.72;;;-3.20;73.60;;;;;;5051233;28;20063;-69
2021/12/26 06:02:04;;;;;;;16.67;7.13;;;-3.10;73.70;;;;;;5058368;28;20118;-71
2021/12/26 06:04:30;;;;;;;14.18;6.90;;;-3.10;73.60;;;;;;5058949;28;20110;-70
2021/12/26 06:06:56;;;;;;;16.70;7.25;;;-3.00;73.60;;;;;;5059672;28;20021;-72
2021/12/26 06:09:22;;;;;;;14.15;6.13;;;-3.00;73.70;;;;;;5058449;28;20025;-71
2021/12/26 06:11:48;;;;;;;19.52;7.97;;;-2.90;73.70;;;;;;5058420;28;20159;-72
2021/12/26 06:14:14;;;;;;;13.23;6.68;;;-2.90;73.70;;;;;;5050231;28;20502;-72
2021/12/26 06:16:39;;;;;;;21.38;11.40;;;-2.80;73.50;;;;;;5037943;28;20029;-72
2021/12/26 06:19:05;;;;;;;28.90;12.40;;;-2.80;73.80;;;;;;5039199;28;20033;-72
2021/12/26 06:21:31;;;;;;;30.75;8.32;;;-2.70;74.80;;;;;;5039306;28;20022;-71
2021/12/26 06:23:57;;;;;;;17.23;8.48;;;-2.30;76.10;;;;;;5057116;28;20159;-73
2021/12/26 06:26:25;;;;;;;24.98;8.63;;;-1.90;76.80;;;;;;5058116;28;20115;-74
2021/12/26 06:28:51;;;;;;;25.00;10.10;;;-1.50;76.10;;;;;;5058915;28;20018;-77
2021/12/26 06:31:17;;;;;;;26.45;10.32;;;-1.30;75.40;;;;;;5046284;28;20035;-79
2021/12/26 06:33:43;;;;;;;34.67;11.90;;;-1.10;75.20;;;;;;5046880;28;20430;-83
2021/12/26 06:36:10;;;;;;;33.10;14.50;;;-0.90;75.20;;;;;;5050483;28;20033;-81
2021/12/26 06:38:37;;;;;;;28.80;11.68;;;-0.60;75.10;;;;;;5048837;28;20524;-76
2021/12/26 06:41:05;;;;;;;24.75;10.65;;;-0.40;74.90;;;;;;5044912;28;20021;-79
2021/12/26 06:43:32;;;;;;;25.17;11.05;;;-0.20;74.60;;;;;;5053043;28;20091;-78
2021/12/26 06:45:58;;;;;;;23.52;10.88;;;0.10;74.60;;;;;;5045390;28;20025;-78
2021/12/26 06:48:24;;;;;;;21.75;10.07;;;0.50;75.10;;;;;;5044235;28;20079;-80
2021/12/26 06:50:51;;;;;;;24.17;11.90;;;1.00;74.80;;;;;;5044352;28;20391;-77
2021/12/26 06:53:17;;;;;;;28.48;19.65;;;1.40;74.30;;;;;;5034415;28;20364;-74
2021/12/26 06:55:43;;;;;;;21.60;9.27;;;1.80;72.10;;;;;;5043470;28;20096;-74
2021/12/26 06:58:09;;;;;;;24.40;16.27;;;2.20;70.60;;;;;;5049426;28;20039;-74
2021/12/26 07:00:35;;;;;;;21.23;13.23;;;2.60;69.30;;;;;;5045409;28;20025;-77
2021/12/26 07:03:02;;;;;;;19.58;13.02;;;3.00;67.30;;;;;;5048612;28;20040;-76
2021/12/26 07:05:28;;;;;;;17.38;11.95;;;3.50;65.50;;;;;;5047212;28;20048;-79
2021/12/26 07:07:53;;;;;;;18.92;12.25;;;4.00;64.30;;;;;;5048909;28;20017;-76
2021/12/26 07:10:20;;;;;;;14.15;10.60;;;4.60;63.00;;;;;;5038417;28;20025;-79
2021/12/26 07:12:46;;;;;;;37.15;24.65;;;5.20;61.50;;;;;;5037207;28;20041;-82
2021/12/26 07:15:12;;;;;;;15.38;10.85;;;5.80;59.90;;;;;;5042863;28;20025;-78
2021/12/26 07:17:40;;;;;;;13.95;10.00;;;6.30;58.30;;;;;;5043621;28;20067;-77
2021/12/26 07:20:07;;;;;;;13.88;9.00;;;6.70;56.70;;;;;;5051368;28;20412;-76
2021/12/26 07:22:33;;;;;;;12.07;8.38;;;7.20;55.80;;;;;;5045742;28;20062;-83
2021/12/26 07:24:59;;;;;;;10.40;7.25;;;7.50;54.80;;;;;;5035605;28;20126;-82
2021/12/26 07:27:24;;;;;;;10.52;6.72;;;8.00;54.00;;;;;;5039459;28;20035;-82
2021/12/26 07:29:51;;;;;;;12.40;7.75;;;8.40;52.80;;;;;;5035399;28;20061;-79
2021/12/26 07:32:16;;;;;;;11.25;7.45;;;8.80;51.90;;;;;;5034609;28;20391;-81
2021/12/26 07:34:42;;;;;;;10.80;7.18;;;9.10;51.10;;;;;;5033939;28;20037;-80
2021/12/26 07:37:08;;;;;;;12.43;7.40;;;9.20;50.00;;;;;;5050623;28;20036;-78
2021/12/26 07:39:35;;;;;;;11.00;7.53;;;9.20;49.90;;;;;;5051775;28;20090;-79
2021/12/26 07:42:02;;;;;;;12.38;7.70;;;9.30;49.40;;;;;;5035138;28;20099;-79
2021/12/26 07:44:28;;;;;;;12.80;7.72;;;9.40;48.90;;;;;;5035014;28;20071;-77
2021/12/26 07:46:54;;;;;;;11.13;7.68;;;9.60;48.30;;;;;;5034267;28;20030;-77
2021/12/26 07:49:22;;;;;;;11.18;6.82;;;9.70;47.90;;;;;;5051923;28;20029;-77
2021/12/26 07:51:49;;;;;;;10.73;7.45;;;10.00;47.40;;;;;;5041938;28;20032;-78
2021/12/26 07:54:16;;;;;;;11.23;7.47;;;10.30;46.60;;;;;;5052331;28;20124;-82
2021/12/26 07:56:43;;;;;;;10.80;7.72;;;10.70;45.60;;;;;;5049806;28;20048;-79
2021/12/26 07:59:09;;;;;;;12.38;9.07;;;11.00;45.00;;;;;;5042271;28;20030;-79
2021/12/26 08:01:35;;;;;;;12.90;8.13;;;11.30;44.90;;;;;;5034987;28;20029;-77
2021/12/26 08:04:02;;;;;;;10.80;6.88;;;11.50;44.30;;;;;;5033324;28;20048;-79
2021/12/26 08:06:30;;;;;;;11.95;7.03;;;11.70;43.80;;;;;;5041259;28;20026;-76
2021/12/26 08:08:56;;;;;;;10.50;6.72;;;11.60;43.20;;;;;;5038707;28;20025;-79
2021/12/26 08:11:22;;;;;;;11.82;7.05;;;11.50;43.20;;;;;;5043644;28;20025;-76
2021/12/26 08:13:48;;;;;;;10.98;6.45;;;11.80;43.10;;;;;;5038624;28;20044;-82
2021/12/26 08:16:14;;;;;;;10.88;5.72;;;11.60;43.30;;;;;;5034444;28;20030;-82
2021/12/26 08:18:40;;;;;;;9.35;5.72;;;11.60;42.60;;;;;;5033286;28;20463;-77
2021/12/26 08:21:06;;;;;;;11.10;6.72;;;11.90;42.20;;;;;;5035498;28;20039;-81
2021/12/26 08:23:32;;;;;;;11.02;6.90;;;12.00;42.10;;;;;;5057938;28;20028;-80
2021/12/26 08:25:57;;;;;;;9.00;5.90;;;12.30;41.70;;;;;;5040689;28;20040;-76
2021/12/26 08:28:24;;;;;;;10.50;6.60;;;12.50;40.90;;;;;;5060607;28;20040;-77
2021/12/26 08:30:49;;;;;;;12.48;7.25;;;12.50;41.00;;;;;;5035656;28;20036;-75
2021/12/26 08:33:15;;;;;;;13.52;8.25;;;12.60;41.10;;;;;;5038349;28;20029;-76
2021/12/26 08:35:43;;;;;;;12.70;7.40;;;12.70;41.10;;;;;;5032549;28;20021;-74
2021/12/26 08:38:10;;;;;;;10.75;7.13;;;13.00;40.90;;;;;;5032741;28;20033;-75
2021/12/26 08:40:36;;;;;;;10.93;6.82;;;13.40;40.40;;;;;;5033353;28;20079;-74
2021/12/26 08:43:02;;;;;;;11.93;7.22;;;13.60;39.90;;;;;;5039780;28;20037;-76
2021/12/26 08:45:28;;;;;;;12.68;6.95;;;13.80;39.50;;;;;;5034836;28;20029;-76
2021/12/26 08:47:55;;;;;;;11.60;7.38;;;14.00;39.20;;;;;;5034887;28;20037;-77
2021/12/26 08:50:24;;;;;;;14.05;6.95;;;14.00;38.90;;;;;;5039682;28;20052;-75
2021/12/26 08:52:49;;;;;;;9.65;5.50;;;14.00;38.80;;;;;;5032428;28;20415;-76
2021/12/26 08:55:20;;;;;;;8.48;4.88;;;13.90;38.70;;;;;;5033251;28;20040;-76
2021/12/26 08:57:47;;;;;;;9.32;5.35;;;14.10;38.10;;;;;;5033739;28;20056;-77
2021/12/26 09:00:15;;;;;;;9.15;5.47;;;14.10;37.90;;;;;;5034895;28;20029;-76
2021/12/26 09:02:40;;;;;;;11.07;5.40;;;14.10;37.90;;;;;;5031902;28;20119;-76
2021/12/26 09:05:07;;;;;;;9.77;5.60;;;14.20;38.00;;;;;;5031698;28;20060;-74
2021/12/26 09:07:33;;;;;;;7.40;4.90;;;14.20;37.50;;;;;;5033612;28;20025;-77
2021/12/26 09:09:59;;;;;;;11.75;6.25;;;14.00;37.20;;;;;;5032973;28;20035;-75
2021/12/26 09:12:25;;;;;;;12.93;8.00;;;13.50;37.70;;;;;;5039541;28;20119;-73
2021/12/26 09:14:51;;;;;;;11.18;6.53;;;13.60;38.20;;;;;;5041476;28;20475;-74
2021/12/26 09:17:17;;;;;;;11.23;6.45;;;13.90;38.10;;;;;;5033487;28;20109;-73
2021/12/26 09:19:42;;;;;;;9.52;5.97;;;14.00;37.80;;;;;;5031561;28;20120;-75
2021/12/26 09:22:13;;;;;;;10.70;5.70;;;13.80;37.50;;;;;;5031997;28;20372;-76
2021/12/26 09:24:39;;;;;;;7.80;4.82;;;14.10;37.60;;;;;;5039867;28;20033;-75
2021/12/26 09:27:05;;;;;;;8.13;5.10;;;14.40;37.30;;;;;;5033168;28;20068;-77
2021/12/26 09:29:31;;;;;;;8.65;5.30;;;14.40;36.50;;;;;;5041496;28;20057;-76
2021/12/26 09:31:57;;;;;;;7.82;4.38;;;14.30;36.60;;;;;;5032826;28;20025;-73
2021/12/26 09:34:23;;;;;;;7.43;4.32;;;14.30;36.50;;;;;;5032941;28;20034;-75
2021/12/26 09:36:49;;;;;;;15.63;5.18;;;14.20;36.60;;;;;;5035248;28;20029;-74
2021/12/26 09:39:15;;;;;;;8.10;5.10;;;14.40;36.70;;;;;;5034277;28;20029;-73
2021/12/26 09:41:41;;;;;;;8.00;4.57;;;14.70;36.40;;;;;;5031852;28;20017;-74
2021/12/26 09:44:08;;;;;;;7.85;4.22;;;14.80;35.70;;;;;;5031746;28;20038;-75
2021/12/26 09:46:35;;;;;;;7.97;5.03;;;14.80;35.50;;;;;;5031549;28;20474;-74
2021/12/26 09:49:01;;;;;;;9.48;4.85;;;15.10;35.40;;;;;;5036980;28;20365;-77
2021/12/26 09:51:28;;;;;;;6.10;3.92;;;15.20;35.20;;;;;;5035931;28;20481;-73
2021/12/26 09:53:54;;;;;;;7.90;4.25;;;14.90;35.00;;;;;;5038408;28;20037;-74
2021/12/26 09:56:20;;;;;;;7.50;4.63;;;14.60;35.40;;;;;;5033108;28;20460;-75
2021/12/26 09:59:07;;;;;;;8.68;5.03;;;14.70;35.50;;;;;;5032418;28;20037;-75
2021/12/26 10:01:43;;;;;;;9.15;5.25;;;14.50;35.00;;;;;;5032670;28;20056;-74
2021/12/26 10:04:16;;;;;;;7.10;3.92;;;14.50;35.40;;;;;;5031124;28;20034;-76
2021/12/26 10:06:42;;;;;;;9.25;4.70;;;14.60;35.10;;;;;;5032834;28;20029;-77
2021/12/26 10:09:09;;;;;;;7.43;4.07;;;14.70;34.90;;;;;;5032502;28;20037;-75
2021/12/26 10:11:37;;;;;;;8.20;4.72;;;14.50;34.90;;;;;;5034785;28;20033;-74
2021/12/26 10:14:09;;;;;;;6.85;4.30;;;14.30;35.10;;;;;;5037853;28;20032;-75
2021/12/26 10:16:41;;;;;;;7.97;4.47;;;14.20;35.00;;;;;;5046021;28;20048;-74
2021/12/26 10:19:07;;;;;;;8.13;4.15;;;14.10;35.20;;;;;;5037114;28;20484;-74
2021/12/26 10:21:38;;;;;;;6.50;3.97;;;14.00;35.30;;;;;;5039540;28;20410;-77
2021/12/26 10:24:12;;;;;;;5.82;3.15;;;14.10;35.00;;;;;;5037238;28;20128;-73
2021/12/26 10:26:53;;;;;;;6.95;3.08;;;14.40;34.70;;;;;;5039714;28;20139;-72
2021/12/26 10:29:40;;;;;;;6.57;3.50;;;14.70;34.10;;;;;;5038842;28;20467;-76
2021/12/26 10:32:19;;;;;;;6.43;3.80;;;14.50;34.00;;;;;;5037897;28;20029;-75
2021/12/26 10:34:44;;;;;;;8.93;4.72;;;14.00;34.50;;;;;;5042441;28;20069;-75
2021/12/26 10:37:34;;;;;;;7.20;3.45;;;13.80;35.00;;;;;;5036048;28;20061;-76
2021/12/26 10:40:04;;;;;;;6.82;3.92;;;13.80;34.70;;;;;;5040131;28;20394;-75
2021/12/26 10:42:32;;;;;;;7.05;3.70;;;13.80;35.10;;;;;;5037621;28;20037;-73
2021/12/26 10:45:05;;;;;;;7.65;4.20;;;13.70;34.90;;;;;;5034948;28;20391;-76
2021/12/26 10:47:33;;;;;;;10.68;4.07;;;13.50;35.60;;;;;;5041158;28;20515;-75
2021/12/26 10:50:07;;;;;;;7.10;3.25;;;13.40;35.10;;;;;;5035834;28;20436;-76
2021/12/26 10:52:36;;;;;;;7.18;4.20;;;13.40;35.10;;;;;;5035317;28;20037;-76
2021/12/26 10:55:07;;;;;;;7.35;5.00;;;13.60;35.00;;;;;;5034981;28;20048;-72
2021/12/26 10:57:43;;;;;;;7.40;4.15;;;14.00;34.50;;;;;;5034537;28;20384;-75
2021/12/26 11:00:12;;;;;;;6.68;3.80;;;14.20;34.10;;;;;;5036764;28;20017;-76
2021/12/26 11:02:40;;;;;;;6.30;3.20;;;14.40;34.10;;;;;;5039449;28;20364;-76
2021/12/26 11:05:30;;;;;;;6.72;3.38;;;14.30;33.80;;;;;;5045406;28;20029;-75
2021/12/26 11:07:58;;;;;;;7.40;3.60;;;14.00;34.10;;;;;;5036080;28;20418;-76
2021/12/26 11:10:38;;;;;;;7.28;3.45;;;14.00;34.20;;;;;;5035548;28;20456;-76
2021/12/26 11:13:07;;;;;;;6.70;3.70;;;14.00;33.90;;;;;;5034178;28;20404;-75
2021/12/26 11:15:40;;;;;;;8.40;4.40;;;13.80;34.00;;;;;;5035051;28;20069;-75
2021/12/26 11:18:12;;;;;;;6.43;3.10;;;13.80;33.90;;;;;;5039207;28;20025;-75
2021/12/26 11:20:50;;;;;;;6.03;3.20;;;13.40;33.60;;;;;;5039984;28;20064;-76
2021/12/26 11:23:23;;;;;;;5.75;3.10;;;13.10;34.10;;;;;;5046142;28;20148;-76
2021/12/26 11:26:02;;;;;;;7.13;3.00;;;12.50;34.20;;;;;;5032261;28;20103;-76
2021/12/26 11:28:31;;;;;;;6.13;3.85;;;12.20;34.70;;;;;;5044349;28;20025;-79
2021/12/26 11:31:02;;;;;;;8.23;4.28;;;12.20;35.10;;;;;;5038898;28;20029;-82
2021/12/26 11:33:29;;;;;;;6.03;3.65;;;12.20;34.90;;;;;;5034806;28;20065;-83
2021/12/26 11:35:56;;;;;;;7.13;3.00;;;11.90;35.20;;;;;;5034178;28;20025;-78
2021/12/26 11:38:24;;;;;;;5.47;3.25;;;11.70;35.10;;;;;;5033501;28;20399;-83
2021/12/26 11:40:59;;;;;;;6.63;3.10;;;11.40;35.30;;;;;;5035934;28;20507;-72
2021/12/26 11:44:12;;;;;;;6.57;4.03;;;11.30;35.50;;;;;;5040920;28;20069;-76
2021/12/26 11:46:40;;;;;;;7.18;4.18;;;11.00;35.80;;;;;;5051508;28;20033;-81
2021/12/26 11:49:54;;;;;;;6.93;3.60;;;11.10;36.30;;;;;;5035531;28;20022;-81
2021/12/26 11:52:29;;;;;;;5.45;3.08;;;11.30;36.10;;;;;;5035930;28;20047;-82
2021/12/26 11:55:04;;;;;;;7.28;3.88;;;11.40;35.80;;;;;;5034968;28;20031;-79
2021/12/26 11:57:33;;;;;;;5.93;3.40;;;11.50;35.60;;;;;;5038681;28;20083;-82
2021/12/26 12:00:29;;;;;;;6.13;3.40;;;11.70;35.60;;;;;;5042380;28;20029;-81
2021/12/26 12:03:00;;;;;;;6.88;4.00;;;11.80;35.40;;;;;;5034009;28;20053;-76
2021/12/26 12:05:36;;;;;;;6.22;3.10;;;11.80;35.30;;;;;;5032621;28;20036;-79
2021/12/26 12:08:07;;;;;;;5.22;2.85;;;11.90;35.00;;;;;;5033391;28;20357;-81
2021/12/26 12:10:48;;;;;;;7.22;2.80;;;11.90;34.80;;;;;;5039503;28;20029;-78
2021/12/26 12:13:14;;;;;;;5.90;2.85;;;11.80;34.70;;;;;;5053170;28;20084;-82
2021/12/26 12:16:04;;;;;;;5.72;3.08;;;11.70;34.90;;;;;;5041758;28;20056;-81
2021/12/26 12:18:54;;;;;;;7.18;4.13;;;11.50;34.80;;;;;;5039879;28;20037;-81
2021/12/26 12:21:30;;;;;;;6.50;3.83;;;11.70;35.20;;;;;;5043267;28;20499;-80
2021/12/26 12:24:17;;;;;;;5.47;3.30;;;11.60;35.10;;;;;;5044324;28;20039;-81
2021/12/26 12:26:49;;;;;;;8.68;4.50;;;11.20;35.10;;;;;;5039597;28;20052;-82
2021/12/26 12:29:24;;;;;;;8.82;4.28;;;10.60;35.50;;;;;;5043180;28;20060;-80
2021/12/26 12:32:09;;;;;;;6.90;3.60;;;10.10;36.10;;;;;;5037719;28;20502;-78
2021/12/26 12:34:57;;;;;;;6.80;3.70;;;9.80;36.40;;;;;;5041445;28;20044;-75
2021/12/26 12:37:29;;;;;;;8.38;3.90;;;9.70;36.50;;;;;;5036332;28;20028;-76
2021/12/26 12:40:30;;;;;;;8.77;5.22;;;9.40;36.40;;;;;;5033834;28;20057;-74
2021/12/26 12:43:05;;;;;;;10.75;5.20;;;9.00;36.80;;;;;;5035544;28;20046;-73
2021/12/26 12:45:54;;;;;;;9.18;4.30;;;8.40;37.40;;;;;;5043100;28;20116;-74
2021/12/26 12:48:53;;;;;;;7.78;4.55;;;8.00;38.30;;;;;;5034350;28;20037;-77
2021/12/26 12:51:18;;;;;;;11.30;5.57;;;7.40;38.90;;;;;;5039563;28;20119;-75
2021/12/26 12:53:51;;;;;;;6.22;3.72;;;6.90;39.60;;;;;;5033288;28;20499;-76